Time;durP1;ratioP1;P1;durP2;ratioP2;P2;SDS_P1;SDS_P2;PMS_P1;PMS_P2;Temp;Humidity;BMP_temperature;BMP_pressure;BME280_temperature;BME280_humidity;BME280_pressure;Samples;Min_cycle;Max_cycle;Signal;HPM_P1;HPM_P2
2024/03/19 00:00:16;;;;;;;10.57;8.80;;;9.70;99.90;;;;;;4963488;28;20754;-84
2024/03/19 00:02:42;;;;;;;11.43;9.48;;;9.80;99.90;;;;;;4955422;28;20192;-83
2024/03/19 00:05:08;;;;;;;9.63;8.32;;;10.10;99.90;;;;;;4962415;28;20195;-84
2024/03/19 00:07:34;;;;;;;10.05;8.68;;;10.10;99.90;;;;;;4962697;28;20212;-85
2024/03/19 00:10:00;;;;;;;9.00;8.13;;;9.80;99.90;;;;;;4962915;28;20198;-83
2024/03/19 00:12:26;;;;;;;11.13;8.70;;;10.80;99.90;;;;;;4959921;28;20493;-82
2024/03/19 00:14:53;;;;;;;11.27;8.30;;;9.90;99.90;;;;;;4958139;28;20423;-82
2024/03/19 00:17:18;;;;;;;9.60;8.70;;;9.70;99.90;;;;;;4961619;28;20259;-84
2024/03/19 00:19:44;;;;;;;10.67;9.03;;;9.50;99.90;;;;;;4949287;28;20197;-84
2024/03/19 00:22:10;;;;;;;10.83;8.23;;;10.00;99.90;;;;;;4964445;28;20185;-84
2024/03/19 00:24:35;;;;;;;10.02;9.02;;;10.20;99.90;;;;;;4962840;28;20177;-82
2024/03/19 00:27:01;;;;;;;12.20;8.47;;;10.00;99.90;;;;;;4958092;28;20205;-82
2024/03/19 00:29:27;;;;;;;9.57;8.50;;;9.70;99.90;;;;;;4965096;28;20223;-83
2024/03/19 00:31:53;;;;;;;11.00;8.60;;;10.20;99.90;;;;;;4965139;28;20193;-82
2024/03/19 00:34:19;;;;;;;9.20;8.03;;;9.70;99.90;;;;;;4953512;28;20451;-83
2024/03/19 00:36:44;;;;;;;10.07;8.90;;;9.90;99.90;;;;;;4963888;28;20534;-83
2024/03/19 00:39:11;;;;;;;10.17;8.23;;;9.60;99.90;;;;;;4965803;28;20449;-83
2024/03/19 00:41:37;;;;;;;10.65;8.73;;;10.30;99.90;;;;;;4963331;28;20464;-83
2024/03/19 00:44:05;;;;;;;8.93;7.82;;;11.30;99.90;;;;;;4965314;28;20181;-83
2024/03/19 00:46:31;;;;;;;8.98;7.65;;;9.80;99.90;;;;;;4965208;28;20205;-84
2024/03/19 00:48:56;;;;;;;10.93;8.63;;;9.80;99.90;;;;;;4969133;28;20189;-84
2024/03/19 00:51:22;;;;;;;9.37;8.47;;;10.00;99.90;;;;;;4985618;28;20213;-83
2024/03/19 00:53:47;;;;;;;11.03;8.00;;;9.60;99.90;;;;;;4982017;28;20197;-84
2024/03/19 00:56:13;;;;;;;9.30;8.40;;;9.90;99.90;;;;;;4981841;28;20247;-84
2024/03/19 00:58:39;;;;;;;11.63;8.20;;;9.40;99.90;;;;;;4963593;28;20252;-83
2024/03/19 01:01:04;;;;;;;8.10;7.30;;;9.50;99.90;;;;;;4966566;28;20204;-84
2024/03/19 01:03:30;;;;;;;9.50;7.53;;;9.60;99.90;;;;;;4954376;28;20193;-82
2024/03/19 01:05:55;;;;;;;10.30;8.60;;;9.40;99.90;;;;;;4964996;28;20220;-84
2024/03/19 01:08:21;;;;;;;8.97;7.93;;;9.40;99.90;;;;;;4966575;28;20263;-83
2024/03/19 01:10:47;;;;;;;9.50;7.80;;;9.50;99.90;;;;;;4973470;28;20188;-82
2024/03/19 01:13:13;;;;;;;9.77;8.87;;;10.80;99.90;;;;;;4972179;28;20450;-82
2024/03/19 01:15:39;;;;;;;8.65;7.85;;;9.60;99.90;;;;;;4990310;28;20204;-84
2024/03/19 01:18:04;;;;;;;10.03;9.00;;;9.60;99.90;;;;;;4971854;28;20197;-83
2024/03/19 01:20:31;;;;;;;9.13;7.73;;;9.50;99.90;;;;;;4965890;28;20216;-83
2024/03/19 01:22:58;;;;;;;9.75;8.10;;;9.80;99.90;;;;;;4967632;28;20253;-83
2024/03/19 01:25:24;;;;;;;8.35;7.47;;;9.40;99.90;;;;;;4975857;28;20277;-83
2024/03/19 01:27:51;;;;;;;11.20;8.53;;;9.50;99.90;;;;;;4962055;28;20194;-83
2024/03/19 01:30:16;;;;;;;8.65;7.72;;;9.50;99.90;;;;;;4967203;28;20185;-83
2024/03/19 01:32:42;;;;;;;9.03;7.80;;;9.40;99.90;;;;;;4971785;28;20217;-83
2024/03/19 01:35:08;;;;;;;8.23;7.53;;;9.30;99.90;;;;;;4991997;28;20434;-83
2024/03/19 01:37:34;;;;;;;8.68;7.18;;;9.10;99.90;;;;;;4968015;28;20608;-83
2024/03/19 01:40:01;;;;;;;8.30;7.30;;;9.30;99.90;;;;;;4965468;28;20216;-83
2024/03/19 01:42:27;;;;;;;8.02;7.22;;;9.60;99.90;;;;;;4972221;28;20195;-83
2024/03/19 01:45:07;;;;;;;9.65;7.40;;;9.50;99.90;;;;;;4968537;28;20721;-83
2024/03/19 01:47:36;;;;;;;9.13;7.90;;;9.00;99.90;;;;;;4963433;28;20240;-83
2024/03/19 01:50:06;;;;;;;9.98;7.38;;;8.90;99.90;;;;;;4969702;28;20219;-83
2024/03/19 01:52:44;;;;;;;10.07;9.05;;;9.40;99.90;;;;;;4964487;28;20184;-83
2024/03/19 01:55:11;;;;;;;10.95;7.07;;;9.20;99.90;;;;;;4969765;28;20281;-83
2024/03/19 01:57:37;;;;;;;8.15;6.97;;;9.30;99.90;;;;;;4967861;28;20213;-83
2024/03/19 02:00:04;;;;;;;8.03;7.23;;;8.80;99.90;;;;;;4967833;28;20215;-83
2024/03/19 02:02:36;;;;;;;9.05;8.15;;;8.90;99.90;;;;;;4965947;28;20184;-83
2024/03/19 02:05:04;;;;;;;8.45;7.60;;;9.10;99.90;;;;;;4968014;28;20189;-83
2024/03/19 02:07:30;;;;;;;8.05;7.25;;;8.80;99.90;;;;;;4963537;28;20292;-83
2024/03/19 02:09:56;;;;;;;8.13;7.30;;;9.10;99.90;;;;;;4967909;28;20203;-83
2024/03/19 02:12:22;;;;;;;10.20;7.73;;;8.70;99.90;;;;;;4975570;28;20186;-83
2024/03/19 02:14:49;;;;;;;8.32;7.15;;;8.80;99.90;;;;;;4956075;28;20204;-84
2024/03/19 02:17:15;;;;;;;9.48;8.52;;;8.70;99.90;;;;;;4959239;28;20728;-83
2024/03/19 02:19:40;;;;;;;9.10;7.00;;;8.70;99.90;;;;;;4954706;28;20219;-83
2024/03/19 02:22:09;;;;;;;13.17;7.50;;;9.10;99.90;;;;;;4963871;28;20509;-82
2024/03/19 02:24:35;;;;;;;8.80;7.90;;;8.70;99.90;;;;;;4947176;28;20212;-83
2024/03/19 02:27:02;;;;;;;8.32;7.38;;;9.00;99.90;;;;;;4966354;28;20793;-83
2024/03/19 02:29:28;;;;;;;8.43;7.57;;;8.30;99.90;;;;;;4968151;28;20704;-83
2024/03/19 02:31:53;;;;;;;7.70;6.90;;;8.80;99.90;;;;;;4959750;28;20193;-83
2024/03/19 02:34:19;;;;;;;9.80;8.60;;;8.80;99.90;;;;;;4949809;28;20518;-83
2024/03/19 02:36:45;;;;;;;7.73;7.00;;;8.20;99.90;;;;;;4960122;28;20216;-84
2024/03/19 02:39:12;;;;;;;8.10;7.30;;;8.00;99.90;;;;;;4959881;28;21000;-83
2024/03/19 02:41:38;;;;;;;12.13;8.35;;;8.60;99.90;;;;;;4960222;28;20184;-83
2024/03/19 02:44:04;;;;;;;8.88;7.90;;;8.20;99.90;;;;;;4961133;28;20236;-83
2024/03/19 02:46:29;;;;;;;9.87;8.87;;;8.30;99.90;;;;;;4959821;28;20302;-83
2024/03/19 02:48:55;;;;;;;9.23;8.33;;;8.10;99.90;;;;;;4961772;28;20192;-82
2024/03/19 02:51:20;;;;;;;9.83;7.60;;;8.00;99.90;;;;;;4963142;28;20193;-82
2024/03/19 02:53:46;;;;;;;9.53;8.30;;;8.20;99.90;;;;;;4949201;28;20285;-83
2024/03/19 02:56:11;;;;;;;9.20;7.20;;;10.10;99.90;;;;;;4965683;28;20204;-82
2024/03/19 02:58:37;;;;;;;10.00;8.00;;;8.50;99.90;;;;;;4977546;28;20196;-83
2024/03/19 03:01:03;;;;;;;13.27;7.97;;;8.40;99.90;;;;;;4962060;28;20193;-82
2024/03/19 03:03:28;;;;;;;8.63;7.33;;;8.20;99.90;;;;;;4958344;28;20426;-84
2024/03/19 03:05:55;;;;;;;8.07;7.07;;;8.10;99.90;;;;;;4958780;28;20212;-84
2024/03/19 03:08:20;;;;;;;8.13;7.32;;;8.20;99.90;;;;;;4967305;28;20196;-82
2024/03/19 03:10:47;;;;;;;8.90;8.00;;;8.10;99.90;;;;;;4957920;28;20180;-82
2024/03/19 03:13:13;;;;;;;9.73;8.02;;;8.10;99.90;;;;;;4956751;28;20272;-83
2024/03/19 03:15:38;;;;;;;8.65;7.60;;;8.50;99.90;;;;;;4967358;28;20207;-82
2024/03/19 03:18:04;;;;;;;8.20;7.40;;;8.20;99.90;;;;;;4973580;28;20238;-84
2024/03/19 03:20:30;;;;;;;7.53;6.70;;;8.20;99.90;;;;;;4963033;28;20774;-84
2024/03/19 03:22:55;;;;;;;8.00;7.20;;;8.70;99.90;;;;;;4961376;28;20192;-84
2024/03/19 03:25:21;;;;;;;10.13;6.97;;;7.80;99.90;;;;;;4973877;28;20208;-84
2024/03/19 03:27:47;;;;;;;9.87;7.47;;;8.30;99.90;;;;;;4963045;28;20188;-84
2024/03/19 03:30:13;;;;;;;7.80;7.07;;;8.30;99.90;;;;;;4964335;28;20196;-83
2024/03/19 03:32:45;;;;;;;6.85;6.15;;;8.40;99.90;;;;;;4979879;28;20456;-82
2024/03/19 03:35:11;;;;;;;7.65;6.95;;;8.30;99.90;;;;;;4977227;28;20386;-84
2024/03/19 03:37:37;;;;;;;8.10;6.97;;;8.20;99.90;;;;;;4968127;28;20214;-84
2024/03/19 03:40:23;;;;;;;10.20;6.80;;;8.10;99.90;;;;;;4964535;28;20185;-84
2024/03/19 03:42:50;;;;;;;7.57;6.85;;;8.30;99.90;;;;;;4961251;28;20187;-84
2024/03/19 03:45:19;;;;;;;6.78;5.88;;;8.20;99.90;;;;;;4983858;28;20181;-84
2024/03/19 03:47:45;;;;;;;7.07;6.35;;;8.10;99.90;;;;;;4978002;28;20168;-84
2024/03/19 03:50:12;;;;;;;7.37;6.67;;;8.00;99.90;;;;;;4974027;28;20180;-84
2024/03/19 03:52:38;;;;;;;7.63;6.57;;;8.10;99.90;;;;;;4973132;28;20168;-84
2024/03/19 03:55:09;;;;;;;6.70;6.00;;;7.90;99.90;;;;;;4978714;28;20196;-84
2024/03/19 03:57:36;;;;;;;6.30;5.70;;;7.90;99.90;;;;;;4976257;28;20216;-84
2024/03/19 04:00:08;;;;;;;7.50;6.70;;;7.70;99.90;;;;;;4977027;28;20201;-83
2024/03/19 04:02:33;;;;;;;7.30;6.63;;;8.00;99.90;;;;;;4962262;28;20835;-84
2024/03/19 04:04:59;;;;;;;7.77;6.83;;;8.00;99.90;;;;;;4964451;28;20195;-84
2024/03/19 04:07:24;;;;;;;6.73;6.10;;;7.70;99.90;;;;;;4968065;28;20227;-84
2024/03/19 04:09:50;;;;;;;6.83;6.13;;;7.90;99.90;;;;;;4969040;28;20227;-83
2024/03/19 04:12:15;;;;;;;7.23;6.53;;;7.60;99.90;;;;;;4957449;28;20235;-82
2024/03/19 04:14:41;;;;;;;7.53;6.70;;;7.60;99.90;;;;;;4963079;28;20692;-83
2024/03/19 04:17:06;;;;;;;8.43;7.43;;;7.70;99.90;;;;;;4960048;28;20248;-82
2024/03/19 04:19:32;;;;;;;8.10;7.00;;;8.10;99.90;;;;;;4974655;28;20240;-82
2024/03/19 04:21:57;;;;;;;7.90;7.13;;;7.40;99.90;;;;;;4967757;28;20649;-83
2024/03/19 04:24:23;;;;;;;13.60;7.10;;;7.50;99.90;;;;;;4955402;28;20189;-83
2024/03/19 04:26:48;;;;;;;7.50;6.73;;;7.80;99.90;;;;;;4965236;28;20231;-82
2024/03/19 04:29:18;;;;;;;8.47;6.67;;;7.90;99.90;;;;;;4964322;28;20248;-82
2024/03/19 04:31:44;;;;;;;8.15;6.43;;;7.90;99.90;;;;;;4983672;28;20184;-82
2024/03/19 04:34:11;;;;;;;7.37;6.67;;;7.80;99.90;;;;;;4967435;28;20323;-83
2024/03/19 04:36:36;;;;;;;7.18;6.47;;;7.50;99.90;;;;;;4982945;28;20239;-81
2024/03/19 04:39:03;;;;;;;6.77;6.00;;;7.90;99.90;;;;;;4961494;28;20197;-82
2024/03/19 04:41:33;;;;;;;8.55;7.75;;;7.50;99.90;;;;;;4986514;28;20234;-82
2024/03/19 04:43:59;;;;;;;8.35;6.50;;;7.90;99.90;;;;;;4966338;28;20193;-82
2024/03/19 04:46:24;;;;;;;7.63;6.83;;;7.40;99.90;;;;;;4967013;28;20228;-80
2024/03/19 04:48:50;;;;;;;7.57;6.87;;;7.70;99.90;;;;;;4963573;28;20492;-80
2024/03/19 04:51:17;;;;;;;9.57;7.60;;;8.40;99.90;;;;;;4965174;28;20247;-79
2024/03/19 04:53:43;;;;;;;8.23;7.10;;;7.30;99.90;;;;;;4968935;28;20267;-81
2024/03/19 04:56:08;;;;;;;7.10;6.03;;;7.30;99.90;;;;;;4961780;28;20239;-81
2024/03/19 04:58:34;;;;;;;8.40;6.20;;;7.40;99.90;;;;;;4962038;28;20185;-81
2024/03/19 05:00:59;;;;;;;6.63;6.03;;;7.30;99.90;;;;;;4966017;28;20203;-79
2024/03/19 05:03:25;;;;;;;6.37;5.77;;;7.60;99.90;;;;;;4964233;28;20204;-79
2024/03/19 05:05:52;;;;;;;7.83;6.80;;;7.60;99.90;;;;;;4966640;28;20267;-81
2024/03/19 05:08:18;;;;;;;8.15;7.22;;;7.80;99.90;;;;;;4984199;28;20263;-83
2024/03/19 05:10:44;;;;;;;7.30;6.60;;;7.30;99.90;;;;;;4969696;28;20184;-83
2024/03/19 05:13:10;;;;;;;5.95;5.35;;;7.80;99.90;;;;;;4968340;28;20192;-82
2024/03/19 05:15:35;;;;;;;7.57;6.50;;;7.10;99.90;;;;;;4969980;28;20953;-84
2024/03/19 05:18:02;;;;;;;7.40;6.73;;;7.60;99.90;;;;;;4970521;28;20256;-82
2024/03/19 05:20:27;;;;;;;8.07;7.20;;;7.20;99.90;;;;;;4967469;28;20184;-83
2024/03/19 05:22:54;;;;;;;7.50;6.37;;;6.90;99.90;;;;;;4976577;28;20291;-83
2024/03/19 05:25:20;;;;;;;8.07;6.80;;;7.10;99.90;;;;;;4966164;28;20195;-84
2024/03/19 05:27:45;;;;;;;8.40;7.53;;;7.20;99.90;;;;;;4961744;28;20208;-81
2024/03/19 05:30:11;;;;;;;7.83;6.23;;;7.50;99.90;;;;;;4961062;28;20180;-80
2024/03/19 05:32:38;;;;;;;9.43;7.43;;;7.30;99.90;;;;;;4964630;28;20187;-81
2024/03/19 05:35:06;;;;;;;7.63;6.45;;;7.40;99.90;;;;;;4961151;28;20435;-80
2024/03/19 05:37:31;;;;;;;8.45;7.63;;;6.90;99.90;;;;;;4963102;28;20535;-80
2024/03/19 05:39:57;;;;;;;7.50;6.40;;;6.90;99.90;;;;;;4962099;28;20191;-80
2024/03/19 05:42:22;;;;;;;8.07;7.17;;;7.20;99.90;;;;;;4955555;28;20200;-80
2024/03/19 05:44:49;;;;;;;8.03;6.40;;;7.00;99.90;;;;;;4979055;28;20223;-79
2024/03/19 05:47:15;;;;;;;6.22;5.63;;;7.10;99.90;;;;;;4959347;28;20208;-80
2024/03/19 05:49:41;;;;;;;7.50;6.80;;;7.50;99.90;;;;;;4958279;28;20206;-80
2024/03/19 05:52:08;;;;;;;7.53;6.10;;;7.40;99.90;;;;;;4963764;28;20223;-80
2024/03/19 05:54:33;;;;;;;7.03;6.22;;;7.40;99.90;;;;;;4975765;28;20443;-80
2024/03/19 05:56:59;;;;;;;9.33;5.93;;;7.20;99.90;;;;;;4962470;28;20217;-80
2024/03/19 05:59:25;;;;;;;7.57;6.37;;;7.10;99.90;;;;;;4962597;28;20183;-79
2024/03/19 06:01:51;;;;;;;6.70;6.10;;;6.90;99.90;;;;;;4967145;28;20188;-80
2024/03/19 06:04:16;;;;;;;6.43;5.80;;;7.10;99.90;;;;;;4977898;28;20239;-79
2024/03/19 06:06:42;;;;;;;8.87;6.40;;;7.10;99.90;;;;;;4963337;28;21272;-80
2024/03/19 06:09:07;;;;;;;7.17;6.50;;;7.30;99.90;;;;;;4963345;28;20192;-80
2024/03/19 06:11:33;;;;;;;7.80;7.00;;;7.30;99.90;;;;;;4965623;28;20199;-80
2024/03/19 06:13:59;;;;;;;7.47;6.55;;;7.00;99.90;;;;;;4984670;28;20200;-81
2024/03/19 06:16:24;;;;;;;6.80;6.10;;;7.50;99.90;;;;;;4965976;28;20206;-80
2024/03/19 06:18:50;;;;;;;7.03;6.33;;;7.10;99.90;;;;;;4971953;28;20295;-82
2024/03/19 06:21:15;;;;;;;8.63;6.60;;;7.10;99.90;;;;;;4983164;28;20238;-80
2024/03/19 06:23:41;;;;;;;5.90;5.30;;;7.30;99.90;;;;;;4962053;28;20199;-80
2024/03/19 06:26:07;;;;;;;6.13;5.53;;;7.10;99.90;;;;;;4971118;28;20229;-81
2024/03/19 06:28:34;;;;;;;6.97;6.23;;;7.50;99.90;;;;;;4963178;28;20455;-81
2024/03/19 06:30:59;;;;;;;6.70;6.03;;;7.40;99.90;;;;;;4961480;28;20220;-81
2024/03/19 06:33:25;;;;;;;6.43;5.67;;;7.50;99.90;;;;;;4965742;28;20537;-81
2024/03/19 06:35:50;;;;;;;7.60;6.50;;;7.40;99.90;;;;;;4963959;28;20863;-81
2024/03/19 06:38:16;;;;;;;12.60;7.10;;;7.80;99.90;;;;;;4962691;28;20311;-81
2024/03/19 06:40:46;;;;;;;8.77;6.80;;;8.20;99.90;;;;;;4967116;28;20199;-82
2024/03/19 06:43:12;;;;;;;9.45;8.45;;;7.90;99.90;;;;;;4960476;28;20283;-82
2024/03/19 06:45:38;;;;;;;6.43;5.83;;;8.10;99.90;;;;;;4959872;28;20211;-81
2024/03/19 06:48:04;;;;;;;8.43;5.90;;;8.30;99.90;;;;;;4962084;28;20204;-83
2024/03/19 06:50:31;;;;;;;8.13;5.87;;;8.30;99.90;;;;;;4957755;28;20192;-82
2024/03/19 06:52:57;;;;;;;8.27;5.93;;;8.50;99.90;;;;;;4961304;28;20429;-84
2024/03/19 06:55:22;;;;;;;7.57;5.77;;;8.60;99.90;;;;;;4966389;28;20213;-84
2024/03/19 06:57:48;;;;;;;6.93;6.17;;;8.90;99.90;;;;;;4967484;28;20279;-85
2024/03/19 07:00:15;;;;;;;7.57;6.20;;;;;;;;;;4957605;28;20294;-84
2024/03/19 07:02:41;;;;;;;6.82;5.97;;;9.00;99.90;;;;;;4961961;28;20216;-83
2024/03/19 07:05:08;;;;;;;7.00;6.03;;;8.90;99.90;;;;;;4963564;28;20204;-83
2024/03/19 07:07:34;;;;;;;6.53;5.50;;;9.00;99.90;;;;;;4957473;28;22201;-83
2024/03/19 07:09:59;;;;;;;6.10;5.50;;;9.50;99.90;;;;;;4963407;28;20199;-82
2024/03/19 07:12:25;;;;;;;6.00;5.40;;;10.10;99.90;;;;;;4962260;28;20187;-83
2024/03/19 07:14:52;;;;;;;5.40;4.93;;;11.50;99.90;;;;;;4946344;28;20258;-83
2024/03/19 07:17:17;;;;;;;5.15;4.65;;;12.00;99.90;;;;;;4961684;28;20479;-84
2024/03/19 07:19:43;;;;;;;5.93;5.27;;;12.80;99.90;;;;;;4955746;28;20200;-84
2024/03/19 07:22:10;;;;;;;5.17;4.67;;;14.30;99.90;;;;;;4950819;28;20563;-84
2024/03/19 07:24:36;;;;;;;4.68;4.28;;;16.20;99.90;;;;;;4956268;28;20187;-84
2024/03/19 07:27:02;;;;;;;5.40;4.70;;;17.70;99.70;;;;;;4961487;28;20251;-84
2024/03/19 07:29:28;;;;;;;5.30;4.80;;;19.10;97.60;;;;;;4952506;28;20185;-85
2024/03/19 07:31:54;;;;;;;5.77;5.20;;;21.20;93.50;;;;;;4949985;28;20276;-85
2024/03/19 07:34:21;;;;;;;5.63;5.07;;;22.70;91.30;;;;;;4950281;28;20240;-89
2024/03/19 07:36:46;;;;;;;5.40;4.60;;;23.30;86.80;;;;;;4943571;28;20503;-85
2024/03/19 07:39:12;;;;;;;6.47;5.07;;;23.90;81.10;;;;;;4946360;28;20450;-84
2024/03/19 07:41:41;;;;;;;5.30;4.90;;;22.80;80.70;;;;;;4956419;28;20677;-84
2024/03/19 07:44:09;;;;;;;5.88;5.35;;;20.60;86.90;;;;;;4957566;28;20191;-83
2024/03/19 07:46:35;;;;;;;5.07;4.68;;;21.20;89.70;;;;;;4956604;28;20204;-84
2024/03/19 07:49:01;;;;;;;6.43;5.60;;;21.30;88.10;;;;;;4955265;28;20199;-86
2024/03/19 07:51:28;;;;;;;5.40;5.00;;;21.00;88.20;;;;;;4954944;28;20192;-86
2024/03/19 07:53:54;;;;;;;6.65;4.75;;;20.60;90.10;;;;;;4952770;28;20894;-85
2024/03/19 07:56:20;;;;;;;6.00;5.40;;;19.40;90.10;;;;;;4952599;28;20823;-84
2024/03/19 07:58:47;;;;;;;6.00;5.50;;;22.70;93.00;;;;;;4949246;28;20208;-80
2024/03/19 08:01:14;;;;;;;5.45;4.95;;;19.60;92.20;;;;;;4952090;28;20184;-80
2024/03/19 08:03:40;;;;;;;5.53;5.03;;;19.40;92.50;;;;;;4962933;28;20675;-80
2024/03/19 08:06:06;;;;;;;6.20;5.70;;;19.00;92.70;;;;;;4955968;28;20215;-80
2024/03/19 08:08:31;;;;;;;5.40;5.00;;;18.70;92.90;;;;;;4949459;28;20295;-84
2024/03/19 08:10:58;;;;;;;5.17;4.77;;;19.90;93.20;;;;;;4959480;28;20191;-83
2024/03/19 08:13:24;;;;;;;5.45;5.05;;;19.10;92.60;;;;;;4959966;28;20216;-84
2024/03/19 08:15:49;;;;;;;5.70;5.30;;;19.60;92.60;;;;;;4956337;28;20228;-84
2024/03/19 08:18:15;;;;;;;4.43;4.07;;;19.90;92.20;;;;;;4954943;28;20459;-84
2024/03/19 08:20:40;;;;;;;5.07;4.60;;;19.10;91.90;;;;;;4959693;28;20235;-83
2024/03/19 08:23:06;;;;;;;5.60;5.20;;;18.60;93.20;;;;;;4957121;28;20192;-84
2024/03/19 08:25:33;;;;;;;5.20;4.80;;;18.00;94.70;;;;;;4949970;28;20268;-84
2024/03/19 08:27:58;;;;;;;8.40;5.53;;;20.10;95.10;;;;;;4953330;28;20243;-84
2024/03/19 08:30:24;;;;;;;6.77;6.27;;;18.70;93.80;;;;;;4960767;28;20828;-83
2024/03/19 08:32:53;;;;;;;5.30;4.90;;;18.40;94.10;;;;;;4957725;28;20200;-84
2024/03/19 08:35:19;;;;;;;6.25;5.75;;;18.00;94.10;;;;;;4952440;28;20666;-86
2024/03/19 08:37:46;;;;;;;6.10;5.55;;;18.10;94.60;;;;;;4955134;28;20202;-85
2024/03/19 08:40:12;;;;;;;5.25;4.85;;;18.70;94.60;;;;;;4951330;28;20177;-85
2024/03/19 08:42:38;;;;;;;6.20;5.70;;;18.60;93.70;;;;;;4952472;28;20204;-83
2024/03/19 08:45:05;;;;;;;6.13;5.40;;;18.80;94.00;;;;;;4951230;28;20193;-85
2024/03/19 08:47:30;;;;;;;9.07;6.60;;;19.10;94.00;;;;;;4953782;28;20263;-86
2024/03/19 08:49:56;;;;;;;5.60;5.17;;;19.50;93.30;;;;;;4953322;28;20216;-84
2024/03/19 08:52:22;;;;;;;6.50;5.90;;;19.40;92.90;;;;;;4956365;28;20447;-85
2024/03/19 08:54:49;;;;;;;5.97;5.47;;;19.70;93.20;;;;;;4951933;28;20185;-85
2024/03/19 08:57:16;;;;;;;6.20;5.70;;;19.60;92.70;;;;;;4953195;28;20223;-85
2024/03/19 08:59:41;;;;;;;6.18;5.68;;;19.50;92.80;;;;;;4952824;28;20192;-83
2024/03/19 09:02:08;;;;;;;6.73;6.13;;;18.80;93.50;;;;;;4953905;28;20199;-83
2024/03/19 09:04:34;;;;;;;7.20;6.47;;;18.50;94.30;;;;;;4955387;28;20189;-84
2024/03/19 09:07:00;;;;;;;6.55;5.95;;;18.40;94.80;;;;;;4959355;28;20216;-83
2024/03/19 09:09:27;;;;;;;7.45;6.75;;;18.50;94.40;;;;;;4955081;28;20230;-83
2024/03/19 09:11:54;;;;;;;7.03;6.43;;;19.30;94.40;;;;;;4954238;28;20185;-85
2024/03/19 09:14:20;;;;;;;6.25;5.65;;;18.60;93.70;;;;;;4951981;28;20180;-84
2024/03/19 09:16:45;;;;;;;7.00;5.70;;;18.20;94.80;;;;;;4959365;28;20226;-84
2024/03/19 09:19:11;;;;;;;7.10;6.43;;;19.20;94.50;;;;;;4957488;28;20180;-84
2024/03/19 09:21:37;;;;;;;6.90;6.40;;;19.20;93.50;;;;;;4974220;28;20203;-84
2024/03/19 09:24:02;;;;;;;6.27;5.77;;;18.90;93.50;;;;;;4957792;28;20235;-84
2024/03/19 09:26:29;;;;;;;7.00;6.50;;;19.40;94.20;;;;;;4953813;28;20208;-85
2024/03/19 09:28:56;;;;;;;10.23;7.43;;;18.80;94.50;;;;;;4960245;28;20216;-84
2024/03/19 09:31:22;;;;;;;6.82;6.13;;;18.20;95.30;;;;;;4947193;28;20699;-86
2024/03/19 09:33:48;;;;;;;9.93;9.13;;;17.90;95.70;;;;;;4945744;28;20224;-85
2024/03/19 09:36:13;;;;;;;6.93;6.00;;;18.30;96.10;;;;;;4955954;28;20251;-83
2024/03/19 09:38:39;;;;;;;6.53;5.93;;;17.90;95.90;;;;;;4960964;28;20190;-84
2024/03/19 09:41:05;;;;;;;6.30;5.80;;;17.90;95.70;;;;;;4957874;28;20188;-85
2024/03/19 09:43:36;;;;;;;6.70;6.10;;;18.10;96.30;;;;;;4955552;28;20556;-84
2024/03/19 09:46:05;;;;;;;7.45;6.43;;;17.50;96.20;;;;;;4948191;28;20269;-84
2024/03/19 09:48:31;;;;;;;6.88;6.20;;;17.30;96.80;;;;;;4952635;28;20189;-84
2024/03/19 09:50:58;;;;;;;6.60;5.93;;;17.40;97.00;;;;;;4960996;28;20184;-84
2024/03/19 09:53:26;;;;;;;6.70;6.00;;;17.30;96.80;;;;;;4963942;28;20192;-85
2024/03/19 09:55:53;;;;;;;6.70;6.00;;;17.20;96.70;;;;;;4951641;28;20220;-83
2024/03/19 09:58:22;;;;;;;5.97;5.47;;;17.50;97.60;;;;;;4951322;28;20249;-85
2024/03/19 10:00:52;;;;;;;6.63;6.03;;;17.30;97.70;;;;;;4949505;28;20260;-85
2024/03/19 10:03:17;;;;;;;8.23;5.75;;;17.10;97.80;;;;;;4943516;28;20642;-88
2024/03/19 10:05:43;;;;;;;10.10;6.40;;;17.10;97.50;;;;;;4934572;28;20209;-87
2024/03/19 10:08:14;;;;;;;6.90;6.20;;;17.90;98.10;;;;;;4951905;28;20456;-87
2024/03/19 10:10:40;;;;;;;6.00;5.50;;;17.90;97.80;;;;;;4955116;28;20611;-87
2024/03/19 10:13:12;;;;;;;6.20;5.60;;;17.70;97.40;;;;;;4954877;28;20184;-86
2024/03/19 10:15:38;;;;;;;6.05;5.50;;;17.80;96.80;;;;;;4959287;28;20527;-87
2024/03/19 10:18:06;;;;;;;5.80;5.30;;;18.20;96.80;;;;;;4964900;28;20215;-88
2024/03/19 10:20:32;;;;;;;6.53;5.75;;;18.20;96.40;;;;;;4969842;28;20188;-86
2024/03/19 10:23:00;;;;;;;6.18;5.68;;;19.00;95.80;;;;;;4971453;28;20207;-87
2024/03/19 10:25:26;;;;;;;4.80;4.45;;;19.30;95.90;;;;;;4963850;28;20189;-88
2024/03/19 10:27:53;;;;;;;5.82;5.05;;;19.80;95.00;;;;;;4991385;28;20196;-85
2024/03/19 10:30:21;;;;;;;5.70;5.20;;;21.20;93.40;;;;;;4969875;28;20193;-85
2024/03/19 10:32:49;;;;;;;5.20;4.80;;;22.30;91.00;;;;;;4969310;28;20212;-84
2024/03/19 10:35:20;;;;;;;5.70;5.20;;;23.30;87.90;;;;;;4977487;28;20451;-82
2024/03/19 10:37:48;;;;;;;5.13;4.70;;;24.10;84.50;;;;;;4979380;28;20471;-85
2024/03/19 10:40:15;;;;;;;6.37;5.77;;;23.50;84.20;;;;;;4970599;28;20501;-85
2024/03/19 10:42:42;;;;;;;5.03;4.63;;;23.50;82.40;;;;;;4971353;28;20500;-83
2024/03/19 10:45:29;;;;;;;6.10;5.50;;;23.00;83.30;;;;;;4969560;28;20448;-82
2024/03/19 10:47:55;;;;;;;5.60;5.10;;;22.60;86.00;;;;;;4966768;28;20454;-82
2024/03/19 10:50:22;;;;;;;5.23;4.83;;;21.50;86.70;;;;;;4965265;28;20467;-81
2024/03/19 10:53:01;;;;;;;4.37;4.07;;;20.50;90.70;;;;;;4958644;28;20464;-82
2024/03/19 10:55:29;;;;;;;5.37;4.93;;;20.80;90.30;;;;;;4960524;28;20564;-81
2024/03/19 10:58:00;;;;;;;5.30;4.40;;;21.40;90.20;;;;;;4971424;28;20440;-82
2024/03/19 11:00:27;;;;;;;5.77;4.77;;;22.00;88.80;;;;;;4958255;28;20215;-82
2024/03/19 11:02:56;;;;;;;4.43;4.03;;;23.10;86.90;;;;;;4963614;28;20839;-83
2024/03/19 11:05:22;;;;;;;6.10;4.27;;;23.40;82.50;;;;;;4954004;28;20462;-84
2024/03/19 11:07:52;;;;;;;4.57;4.10;;;23.90;80.60;;;;;;4974973;28;20536;-82
2024/03/19 11:10:22;;;;;;;4.20;3.90;;;22.60;81.90;;;;;;4976003;28;20181;-83
2024/03/19 11:12:54;;;;;;;4.43;4.03;;;23.40;80.00;;;;;;4960286;28;20459;-81
2024/03/19 11:15:20;;;;;;;3.60;3.30;;;23.00;80.00;;;;;;4962317;28;20436;-82
2024/03/19 11:18:34;;;;;;;4.80;3.37;;;22.60;80.10;;;;;;4961490;28;20439;-82
2024/03/19 11:21:00;;;;;;;3.90;3.60;;;22.10;81.70;;;;;;4955446;28;20448;-83
2024/03/19 11:23:25;;;;;;;4.57;3.60;;;22.90;81.20;;;;;;4955811;28;20452;-80
2024/03/19 11:25:54;;;;;;;3.97;3.57;;;23.20;78.00;;;;;;4951937;28;20225;-81
2024/03/19 11:28:25;;;;;;;3.77;3.47;;;23.40;78.50;;;;;;4979003;28;20280;-82
2024/03/19 11:30:55;;;;;;;3.13;2.93;;;23.70;75.90;;;;;;4956334;28;20452;-81
2024/03/19 11:33:22;;;;;;;4.33;2.83;;;24.20;75.10;;;;;;4955255;28;20483;-80
2024/03/19 11:35:48;;;;;;;3.67;3.30;;;22.90;75.70;;;;;;4955738;28;20483;-81
2024/03/19 11:38:15;;;;;;;5.90;3.80;;;24.00;78.00;;;;;;4956895;28;20454;-81
2024/03/19 11:40:41;;;;;;;4.27;3.60;;;23.00;77.50;;;;;;4974708;28;20448;-81
2024/03/19 11:43:14;;;;;;;3.00;2.80;;;23.20;78.70;;;;;;4957129;28;20474;-80
2024/03/19 11:45:42;;;;;;;3.27;2.80;;;22.20;78.80;;;;;;4974605;28;20566;-80
2024/03/19 11:48:17;;;;;;;3.57;3.27;;;21.80;78.60;;;;;;4971368;28;20451;-80
2024/03/19 11:50:53;;;;;;;3.40;3.10;;;21.60;78.50;;;;;;4965269;28;20438;-80
2024/03/19 11:53:23;;;;;;;4.10;3.10;;;22.10;79.10;;;;;;4957723;28;20957;-80
2024/03/19 11:55:50;;;;;;;3.50;3.20;;;21.90;79.50;;;;;;4958359;28;20494;-85
2024/03/19 11:58:16;;;;;;;3.20;2.95;;;21.60;79.00;;;;;;4955793;28;20507;-82
2024/03/19 12:00:43;;;;;;;3.73;3.20;;;21.10;78.90;;;;;;4970187;28;20177;-82
2024/03/19 12:03:10;;;;;;;3.10;2.80;;;21.50;79.10;;;;;;4957426;28;20444;-83
2024/03/19 12:05:35;;;;;;;3.00;2.70;;;21.00;79.00;;;;;;4955824;28;20207;-83
2024/03/19 12:08:01;;;;;;;2.90;2.70;;;20.90;79.80;;;;;;4961754;28;20456;-81
2024/03/19 12:10:29;;;;;;;4.03;3.17;;;20.60;80.50;;;;;;4956843;28;20192;-81
2024/03/19 12:12:55;;;;;;;3.80;3.40;;;21.40;82.90;;;;;;4955164;28;20217;-83
2024/03/19 12:15:23;;;;;;;2.70;2.50;;;21.00;83.40;;;;;;4951083;28;20184;-85
2024/03/19 12:17:50;;;;;;;3.63;3.33;;;19.90;85.20;;;;;;4951262;28;20243;-84
2024/03/19 12:20:18;;;;;;;4.10;3.45;;;20.10;84.30;;;;;;4951519;28;20205;-84
2024/03/19 12:22:51;;;;;;;3.78;2.60;;;20.20;84.40;;;;;;4945522;28;20219;-83
2024/03/19 12:25:18;;;;;;;2.80;2.60;;;19.20;85.40;;;;;;4954728;28;20698;-83
2024/03/19 12:27:44;;;;;;;2.90;2.70;;;19.80;86.80;;;;;;4957251;28;20188;-83
2024/03/19 12:30:14;;;;;;;3.43;3.13;;;19.20;88.40;;;;;;4948365;28;20188;-83
2024/03/19 12:32:47;;;;;;;4.18;3.70;;;19.70;89.20;;;;;;4944883;28;20303;-83
2024/03/19 12:35:16;;;;;;;3.20;3.00;;;19.10;88.70;;;;;;4948009;28;20206;-81
2024/03/19 12:37:43;;;;;;;4.63;4.22;;;19.30;89.40;;;;;;4968434;28;20312;-85
2024/03/19 12:40:13;;;;;;;3.72;3.42;;;18.90;90.10;;;;;;4956753;28;20181;-87
2024/03/19 12:42:38;;;;;;;3.28;3.08;;;19.30;90.30;;;;;;4959091;28;20189;-85
2024/03/19 12:45:05;;;;;;;4.90;4.10;;;18.60;90.00;;;;;;4958507;28;20225;-84
2024/03/19 12:47:31;;;;;;;3.75;3.45;;;18.80;89.80;;;;;;4963425;28;20231;-84